Time;durP1;ratioP1;P1;durP2;ratioP2;P2;SDS_P1;SDS_P2;PMS_P1;PMS_P2;Temp;Humidity;BMP_temperature;BMP_pressure;BME280_temperature;BME280_humidity;BME280_pressure;Samples;Min_cycle;Max_cycle;Signal;HPM_P1;HPM_P2
2021/09/23 00:01:27;;;;;;;22.30;19.35;;;12.30;99.90;;;;;;5014119;28;20120;-50
2021/09/23 00:06:23;;;;;;;25.33;19.17;;;12.30;99.90;;;;;;5032055;28;20037;-50
2021/09/23 00:08:48;;;;;;;30.58;22.08;;;12.30;99.90;;;;;;5031796;28;20025;-49
2021/09/23 00:11:14;;;;;;;26.38;20.83;;;12.30;99.90;;;;;;5031580;28;20030;-51
2021/09/23 00:13:40;;;;;;;26.15;21.85;;;12.30;99.90;;;;;;5013941;28;20058;-50
2021/09/23 00:16:05;;;;;;;27.98;21.15;;;12.30;99.90;;;;;;5031226;28;20033;-52
2021/09/23 00:18:31;;;;;;;28.60;22.60;;;12.40;99.90;;;;;;5031736;28;20087;-49
2021/09/23 00:20:58;;;;;;;30.00;22.83;;;12.30;99.90;;;;;;5031748;28;20029;-49
2021/09/23 00:23:24;;;;;;;26.25;21.52;;;12.30;99.90;;;;;;5031790;28;20450;-53
2021/09/23 00:25:49;;;;;;;26.92;21.33;;;12.30;99.90;;;;;;5031510;28;20029;-47
2021/09/23 00:28:15;;;;;;;31.88;23.63;;;12.30;99.90;;;;;;5031448;28;20025;-52
2021/09/23 00:30:41;;;;;;;25.83;21.00;;;12.40;99.90;;;;;;5031549;28;20112;-52
2021/09/23 00:33:07;;;;;;;32.40;21.90;;;12.30;99.90;;;;;;5031650;28;20403;-50
2021/09/23 00:35:32;;;;;;;30.42;23.38;;;12.30;99.90;;;;;;5029165;28;20504;-50
2021/09/23 00:37:58;;;;;;;29.30;21.98;;;12.30;99.90;;;;;;5031595;28;20295;-53
2021/09/23 00:40:24;;;;;;;26.92;23.73;;;12.30;99.90;;;;;;5031302;28;20108;-49
2021/09/23 00:42:50;;;;;;;30.67;22.17;;;12.30;99.90;;;;;;5031321;28;20137;-48
2021/09/23 00:45:19;;;;;;;29.58;24.13;;;12.30;99.90;;;;;;5031196;28;20115;-49
2021/09/23 00:47:45;;;;;;;32.47;26.13;;;12.30;99.90;;;;;;5031232;28;20021;-52
2021/09/23 00:50:13;;;;;;;34.97;25.73;;;12.30;99.90;;;;;;5030160;28;20033;-52
2021/09/23 00:52:39;;;;;;;33.28;25.65;;;12.30;99.90;;;;;;5031197;28;20047;-53
2021/09/23 00:55:07;;;;;;;32.35;23.83;;;12.30;99.90;;;;;;5031075;28;20045;-50
2021/09/23 00:57:33;;;;;;;29.48;24.02;;;12.30;99.90;;;;;;5030805;28;20029;-49
2021/09/23 00:59:59;;;;;;;34.13;23.92;;;12.30;99.90;;;;;;5028615;28;20137;-49
2021/09/23 01:02:25;;;;;;;32.55;24.85;;;12.30;99.90;;;;;;5028431;28;20025;-49
2021/09/23 01:04:51;;;;;;;29.23;24.17;;;12.30;99.90;;;;;;5029972;28;20036;-51
2021/09/23 01:07:19;;;;;;;31.73;25.38;;;12.30;99.90;;;;;;5031188;28;20053;-51
2021/09/23 01:09:47;;;;;;;30.85;24.75;;;12.30;99.90;;;;;;5030359;28;20014;-48
2021/09/23 01:12:13;;;;;;;26.67;22.30;;;12.20;99.90;;;;;;5030874;28;20025;-51
2021/09/23 01:14:39;;;;;;;27.48;22.60;;;12.20;99.90;;;;;;5030000;28;20508;-48
2021/09/23 01:17:05;;;;;;;28.33;24.58;;;12.20;99.90;;;;;;5012941;28;20079;-47
2021/09/23 01:19:32;;;;;;;32.80;24.63;;;12.20;99.90;;;;;;5030413;28;20087;-50
2021/09/23 01:21:58;;;;;;;30.13;23.65;;;12.20;99.90;;;;;;5030484;28;20046;-48
2021/09/23 01:24:25;;;;;;;29.17;23.52;;;12.20;99.90;;;;;;5030082;28;20049;-50
2021/09/23 01:26:51;;;;;;;28.80;22.77;;;12.20;99.90;;;;;;5030443;28;20032;-50
2021/09/23 01:29:17;;;;;;;30.52;23.92;;;12.10;99.90;;;;;;5030155;28;20029;-48
2021/09/23 01:31:44;;;;;;;28.25;23.42;;;12.10;99.90;;;;;;5030573;28;20163;-51
2021/09/23 01:34:10;;;;;;;31.33;24.73;;;12.10;99.90;;;;;;5030219;28;20025;-50
2021/09/23 01:36:36;;;;;;;36.63;25.80;;;12.10;99.90;;;;;;5030153;28;20716;-49
2021/09/23 01:39:02;;;;;;;33.20;26.00;;;12.10;99.90;;;;;;5030310;28;20037;-49
2021/09/23 01:41:27;;;;;;;33.78;24.40;;;12.10;99.90;;;;;;5032708;28;20138;-47
2021/09/23 01:43:53;;;;;;;30.88;24.25;;;12.10;99.90;;;;;;5049872;28;20017;-49
2021/09/23 01:46:19;;;;;;;36.03;26.48;;;12.10;99.90;;;;;;5050077;28;20035;-49
2021/09/23 01:48:44;;;;;;;33.22;25.88;;;12.10;99.90;;;;;;5032004;28;20024;-51
2021/09/23 01:51:10;;;;;;;33.25;25.25;;;12.10;99.90;;;;;;5049733;28;20028;-47
2021/09/23 01:53:35;;;;;;;32.47;25.42;;;12.00;99.90;;;;;;5050072;28;20082;-48
2021/09/23 01:56:01;;;;;;;35.65;27.55;;;12.10;99.90;;;;;;5049824;28;20029;-48
2021/09/23 01:58:27;;;;;;;35.15;27.85;;;12.00;99.90;;;;;;5049888;28;20402;-52
2021/09/23 02:00:52;;;;;;;37.50;27.58;;;12.00;99.90;;;;;;5049546;28;20556;-47
2021/09/23 02:03:18;;;;;;;31.60;25.38;;;12.10;99.90;;;;;;5050015;28;20020;-50
2021/09/23 02:05:43;;;;;;;30.52;26.25;;;12.00;99.90;;;;;;5049775;28;20025;-48
2021/09/23 02:08:09;;;;;;;37.55;28.08;;;12.10;99.90;;;;;;5049955;28;20027;-50
2021/09/23 02:10:35;;;;;;;40.30;27.70;;;12.00;99.90;;;;;;5049819;28;20096;-47
2021/09/23 02:13:01;;;;;;;39.08;28.10;;;12.10;99.90;;;;;;5049785;28;20027;-48
2021/09/23 02:15:26;;;;;;;38.10;29.13;;;12.10;99.90;;;;;;5049372;28;20043;-48
2021/09/23 02:17:52;;;;;;;35.65;26.85;;;12.00;99.90;;;;;;5049832;28;20483;-51
2021/09/23 02:20:17;;;;;;;32.97;28.17;;;12.10;99.90;;;;;;5049342;28;20025;-51
2021/09/23 02:22:43;;;;;;;37.78;29.05;;;12.00;99.90;;;;;;5049523;28;20028;-48
2021/09/23 02:25:10;;;;;;;35.60;27.33;;;12.00;99.90;;;;;;5049425;28;20017;-48
2021/09/23 02:27:35;;;;;;;37.40;29.73;;;12.00;99.90;;;;;;5053888;28;20025;-48
2021/09/23 02:30:03;;;;;;;36.15;29.13;;;12.00;99.90;;;;;;5053634;28;20025;-47
2021/09/23 02:32:29;;;;;;;35.65;27.25;;;12.00;99.90;;;;;;5053815;28;20049;-49
2021/09/23 02:34:56;;;;;;;36.60;29.73;;;12.00;99.90;;;;;;5053498;28;20449;-48
2021/09/23 02:37:22;;;;;;;39.97;28.33;;;12.00;99.90;;;;;;5053491;28;20036;-49
2021/09/23 02:39:48;;;;;;;37.25;28.77;;;12.00;99.90;;;;;;5035569;28;20025;-50
2021/09/23 02:42:14;;;;;;;35.05;25.90;;;12.00;99.90;;;;;;5053594;28;20028;-52
2021/09/23 02:44:40;;;;;;;38.30;29.88;;;12.00;99.90;;;;;;5053243;28;20025;-49
2021/09/23 02:47:05;;;;;;;40.50;30.55;;;11.90;99.90;;;;;;5053402;28;20103;-48
2021/09/23 02:49:31;;;;;;;38.97;29.80;;;11.90;99.90;;;;;;5052860;28;20104;-48
2021/09/23 02:51:58;;;;;;;38.67;28.20;;;11.90;99.90;;;;;;5053280;28;20090;-53
2021/09/23 02:54:24;;;;;;;37.08;28.63;;;11.90;99.90;;;;;;5053321;28;20070;-51
2021/09/23 02:56:49;;;;;;;39.10;28.73;;;11.90;99.90;;;;;;5052968;28;20450;-49
2021/09/23 02:59:15;;;;;;;35.42;27.98;;;11.90;99.90;;;;;;5052906;28;20024;-47
2021/09/23 03:01:41;;;;;;;41.40;29.83;;;11.90;99.90;;;;;;5035224;28;20403;-51
2021/09/23 03:04:06;;;;;;;36.80;28.85;;;11.90;99.90;;;;;;5053108;28;20104;-48
2021/09/23 03:06:32;;;;;;;37.28;28.50;;;11.80;99.90;;;;;;5052729;28;20607;-48
2021/09/23 03:08:59;;;;;;;37.50;28.98;;;11.90;99.90;;;;;;5034911;28;20025;-48
2021/09/23 03:11:25;;;;;;;39.58;29.27;;;11.90;99.90;;;;;;5053081;28;20043;-51
2021/09/23 03:13:51;;;;;;;36.50;29.65;;;11.90;99.90;;;;;;5053071;28;20427;-48
2021/09/23 03:16:16;;;;;;;44.30;28.77;;;11.90;99.90;;;;;;5052365;28;20104;-48
2021/09/23 03:18:42;;;;;;;36.88;28.52;;;11.90;99.90;;;;;;5052891;28;20025;-47
2021/09/23 03:21:08;;;;;;;37.75;29.60;;;11.90;99.90;;;;;;5052458;28;20017;-48
2021/09/23 03:23:33;;;;;;;42.85;29.05;;;11.80;99.90;;;;;;5052860;28;20025;-51
2021/09/23 03:25:59;;;;;;;39.42;27.65;;;11.80;99.90;;;;;;5033985;28;20084;-48
2021/09/23 03:28:25;;;;;;;38.80;28.88;;;11.80;99.90;;;;;;5052548;28;20021;-51
2021/09/23 03:30:51;;;;;;;41.83;30.48;;;11.80;99.90;;;;;;5052392;28;20017;-48
2021/09/23 03:33:16;;;;;;;42.58;29.90;;;11.80;99.90;;;;;;5052494;28;20021;-49
2021/09/23 03:35:42;;;;;;;38.13;28.50;;;11.80;99.90;;;;;;5052279;28;20079;-49
2021/09/23 03:38:08;;;;;;;38.78;29.90;;;11.80;99.90;;;;;;5052397;28;20025;-54
2021/09/23 03:40:34;;;;;;;41.00;30.30;;;11.80;99.90;;;;;;5052349;28;20021;-52
2021/09/23 03:43:00;;;;;;;37.70;28.85;;;11.90;99.90;;;;;;5034794;28;20032;-47
2021/09/23 03:45:25;;;;;;;41.00;31.85;;;11.90;99.90;;;;;;5052504;28;20029;-48
2021/09/23 03:47:51;;;;;;;36.53;29.08;;;11.90;99.90;;;;;;5052185;28;20025;-49
2021/09/23 03:50:17;;;;;;;45.35;31.25;;;11.90;99.90;;;;;;5051884;28;20029;-48
2021/09/23 03:52:44;;;;;;;34.92;27.73;;;11.90;99.90;;;;;;5052122;28;20124;-51
2021/09/23 03:55:10;;;;;;;39.25;29.77;;;11.90;99.90;;;;;;5034286;28;20419;-50
2021/09/23 03:57:36;;;;;;;40.15;28.25;;;11.90;99.90;;;;;;5052160;28;20052;-48
2021/09/23 04:00:03;;;;;;;41.83;28.63;;;11.90;99.90;;;;;;5052059;28;20479;-48
2021/09/23 04:02:29;;;;;;;41.38;30.17;;;11.90;99.90;;;;;;5052097;28;20028;-49
2021/09/23 04:04:54;;;;;;;41.97;29.25;;;11.90;99.90;;;;;;5034027;28;20024;-52
2021/09/23 04:07:20;;;;;;;40.00;28.83;;;11.90;99.90;;;;;;5052028;28;20024;-48
2021/09/23 04:09:46;;;;;;;42.95;31.25;;;11.90;99.90;;;;;;5033853;28;20045;-50
2021/09/23 04:12:11;;;;;;;43.20;29.58;;;11.90;99.90;;;;;;5052145;28;20025;-48
2021/09/23 04:14:37;;;;;;;44.08;30.45;;;11.90;99.90;;;;;;5051352;28;20127;-50
2021/09/23 04:17:03;;;;;;;43.47;30.25;;;11.90;99.90;;;;;;5033773;28;20032;-49
2021/09/23 04:19:28;;;;;;;41.97;29.05;;;11.90;99.90;;;;;;5051236;28;20086;-52
2021/09/23 04:21:54;;;;;;;39.05;30.20;;;11.90;99.90;;;;;;5052049;28;20036;-48
2021/09/23 04:24:20;;;;;;;40.50;29.58;;;11.90;99.90;;;;;;5051235;28;20021;-50
2021/09/23 04:26:47;;;;;;;45.40;30.83;;;11.80;99.90;;;;;;5051588;28;20526;-48
2021/09/23 04:29:12;;;;;;;39.58;29.42;;;11.80;99.90;;;;;;5051253;28;20025;-48
2021/09/23 04:31:38;;;;;;;41.92;29.23;;;11.90;99.90;;;;;;5033560;28;20079;-48
2021/09/23 04:34:04;;;;;;;42.63;30.85;;;11.80;99.90;;;;;;5051322;28;20037;-50
2021/09/23 04:36:29;;;;;;;39.15;29.30;;;11.80;99.90;;;;;;5051290;28;20036;-48
2021/09/23 04:38:55;;;;;;;40.20;27.25;;;11.90;99.90;;;;;;5051100;28;20032;-50
2021/09/23 04:41:21;;;;;;;43.17;30.38;;;11.80;99.90;;;;;;5051136;28;20036;-48
2021/09/23 04:43:48;;;;;;;43.88;29.17;;;11.80;99.90;;;;;;5051557;28;20457;-47
2021/09/23 04:46:20;;;;;;;44.20;29.70;;;11.80;99.90;;;;;;5051293;28;20024;-48
2021/09/23 04:48:50;;;;;;;42.42;28.80;;;11.80;99.90;;;;;;5050593;28;20020;-53
2021/09/23 04:51:17;;;;;;;40.17;29.52;;;11.80;99.90;;;;;;5050613;28;20056;-51
2021/09/23 04:53:42;;;;;;;48.95;30.23;;;11.80;99.90;;;;;;5033093;28;20471;-49
2021/09/23 04:56:08;;;;;;;39.75;29.08;;;11.80;99.90;;;;;;5033145;28;20036;-48
2021/09/23 04:58:34;;;;;;;42.38;27.58;;;11.90;99.90;;;;;;5050927;28;20029;-50
2021/09/23 05:00:59;;;;;;;42.75;28.85;;;11.80;99.90;;;;;;5050300;28;20203;-49
2021/09/23 05:03:25;;;;;;;45.97;29.38;;;11.80;99.90;;;;;;5050853;28;20384;-47
2021/09/23 05:05:50;;;;;;;40.80;27.23;;;11.90;99.90;;;;;;5050782;28;20021;-50
2021/09/23 05:08:16;;;;;;;44.38;29.90;;;11.90;99.90;;;;;;5050873;28;20032;-48
2021/09/23 05:10:42;;;;;;;39.97;27.77;;;11.90;99.90;;;;;;5050538;28;20475;-48
2021/09/23 05:13:07;;;;;;;41.22;27.65;;;11.90;99.90;;;;;;5050963;28;20039;-47
2021/09/23 05:15:33;;;;;;;46.00;30.00;;;11.90;99.90;;;;;;5050151;28;20376;-49
2021/09/23 05:17:59;;;;;;;44.22;29.15;;;11.90;99.90;;;;;;5050566;28;20029;-49
2021/09/23 05:20:25;;;;;;;40.97;28.00;;;11.90;99.90;;;;;;5050301;28;20033;-50
2021/09/23 05:22:50;;;;;;;37.97;27.17;;;11.90;99.90;;;;;;5050558;28;20025;-50
2021/09/23 05:25:16;;;;;;;38.30;26.80;;;11.90;99.90;;;;;;5050429;28;20033;-51
2021/09/23 05:27:42;;;;;;;37.22;26.67;;;12.00;99.90;;;;;;5050548;28;20064;-52
2021/09/23 05:30:12;;;;;;;38.58;27.48;;;12.00;99.90;;;;;;5049974;28;20025;-50
2021/09/23 05:32:39;;;;;;;39.03;29.88;;;12.00;99.90;;;;;;5050199;28;20053;-51
2021/09/23 05:35:06;;;;;;;38.75;27.90;;;12.10;99.90;;;;;;5050384;28;20111;-49
2021/09/23 05:37:31;;;;;;;42.85;28.30;;;12.10;99.90;;;;;;5050301;28;20032;-51
2021/09/23 05:39:57;;;;;;;39.35;26.67;;;12.10;99.90;;;;;;5050097;28;20029;-49
2021/09/23 05:42:23;;;;;;;42.15;27.98;;;12.10;99.90;;;;;;5050302;28;20025;-49
2021/09/23 05:44:49;;;;;;;39.78;26.95;;;12.10;99.90;;;;;;5050290;28;20037;-48
2021/09/23 05:47:15;;;;;;;38.70;27.13;;;12.20;99.90;;;;;;5050016;28;20163;-49
2021/09/23 05:49:41;;;;;;;40.10;26.67;;;12.20;99.90;;;;;;5049758;28;20025;-49
2021/09/23 05:52:07;;;;;;;40.17;28.15;;;12.20;99.90;;;;;;5050053;28;20052;-48
2021/09/23 05:54:33;;;;;;;41.10;27.50;;;12.30;99.90;;;;;;5050166;28;20102;-49
2021/09/23 05:56:58;;;;;;;39.95;25.58;;;12.20;99.90;;;;;;5049910;28;20483;-48
2021/09/23 05:59:26;;;;;;;45.13;25.33;;;12.30;99.90;;;;;;5049675;28;20029;-52
2021/09/23 06:01:56;;;;;;;37.67;26.20;;;12.30;99.90;;;;;;5049190;28;20025;-52
2021/09/23 06:04:22;;;;;;;39.33;27.45;;;12.30;99.90;;;;;;5050123;28;20028;-48
2021/09/23 06:06:48;;;;;;;51.45;30.42;;;12.30;99.90;;;;;;5049888;28;20044;-53
2021/09/23 06:09:14;;;;;;;42.13;28.73;;;12.40;99.90;;;;;;5049508;28;20031;-52
2021/09/23 06:11:40;;;;;;;37.05;24.70;;;12.40;99.90;;;;;;5050333;28;20104;-50
2021/09/23 06:14:06;;;;;;;33.20;23.95;;;12.50;99.90;;;;;;5049918;28;20487;-50
2021/09/23 06:16:32;;;;;;;40.30;26.85;;;12.50;99.90;;;;;;5049559;28;20047;-50
2021/09/23 06:18:58;;;;;;;39.38;25.02;;;12.50;99.90;;;;;;5031776;28;20029;-50
2021/09/23 06:21:23;;;;;;;39.67;25.30;;;12.50;99.90;;;;;;5031612;28;20060;-51
2021/09/23 06:23:49;;;;;;;42.00;26.83;;;12.50;99.90;;;;;;5049656;28;20052;-49
2021/09/23 06:26:15;;;;;;;40.08;25.65;;;12.60;99.90;;;;;;5049464;28;20024;-50
2021/09/23 06:28:41;;;;;;;40.15;26.40;;;12.60;99.90;;;;;;5031677;28;20021;-51
2021/09/23 06:31:08;;;;;;;41.17;25.42;;;12.60;99.90;;;;;;5049439;28;20102;-51
2021/09/23 06:33:33;;;;;;;33.83;24.42;;;12.70;99.90;;;;;;5049596;28;20553;-54
2021/09/23 06:35:59;;;;;;;38.70;24.95;;;12.70;99.90;;;;;;5049662;28;20391;-50
2021/09/23 06:38:24;;;;;;;39.20;26.08;;;12.70;99.90;;;;;;5049581;28;20079;-48
2021/09/23 06:40:55;;;;;;;43.47;25.13;;;12.80;99.90;;;;;;5049420;28;20539;-49
2021/09/23 06:43:22;;;;;;;37.15;23.33;;;12.80;99.90;;;;;;5031802;28;20033;-52
2021/09/23 06:45:48;;;;;;;35.70;25.20;;;12.80;99.90;;;;;;5049667;28;20025;-47
2021/09/23 06:48:13;;;;;;;37.47;24.40;;;12.80;99.90;;;;;;5049576;28;20052;-52
2021/09/23 06:50:39;;;;;;;35.20;24.45;;;12.90;99.90;;;;;;5049122;28;20515;-51
2021/09/23 06:53:05;;;;;;;34.47;22.42;;;12.90;99.90;;;;;;5031511;28;20506;-54
2021/09/23 06:55:31;;;;;;;33.25;24.27;;;13.00;99.90;;;;;;5049221;28;20518;-54
2021/09/23 06:57:56;;;;;;;41.47;23.30;;;13.00;99.90;;;;;;5049415;28;20036;-51
2021/09/23 07:00:22;;;;;;;32.10;22.95;;;13.00;99.90;;;;;;5049054;28;20024;-52
2021/09/23 07:02:48;;;;;;;34.80;23.38;;;13.00;99.90;;;;;;5049363;28;20037;-53
2021/09/23 07:05:14;;;;;;;36.15;23.90;;;13.00;99.90;;;;;;5049204;28;20025;-52
2021/09/23 07:07:39;;;;;;;37.78;23.08;;;13.00;99.90;;;;;;5049308;28;20033;-50
2021/09/23 07:10:06;;;;;;;32.72;24.05;;;13.10;99.90;;;;;;5049218;28;20029;-52
2021/09/23 07:12:32;;;;;;;36.22;24.55;;;13.10;99.90;;;;;;5051628;28;20025;-51
2021/09/23 07:14:58;;;;;;;34.65;23.52;;;13.10;99.90;;;;;;5052402;28;20057;-51
2021/09/23 07:17:23;;;;;;;34.65;24.10;;;13.10;99.90;;;;;;5053309;28;20106;-49
2021/09/23 07:19:49;;;;;;;31.73;23.05;;;13.20;99.90;;;;;;5052739;28;20035;-49
2021/09/23 07:22:15;;;;;;;33.08;23.35;;;13.20;99.90;;;;;;5052866;28;20112;-50
2021/09/23 07:24:41;;;;;;;36.13;24.15;;;13.30;99.90;;;;;;5052506;28;20667;-50
2021/09/23 07:27:07;;;;;;;31.42;21.35;;;13.30;99.90;;;;;;5034685;28;20025;-49
2021/09/23 07:29:33;;;;;;;36.10;22.48;;;13.30;99.90;;;;;;5052478;28;20079;-54
2021/09/23 07:31:59;;;;;;;32.67;22.40;;;13.40;99.90;;;;;;5052811;28;20040;-49
2021/09/23 07:34:24;;;;;;;34.58;22.58;;;13.40;99.90;;;;;;5052681;28;20028;-51
2021/09/23 07:36:50;;;;;;;32.83;22.38;;;13.50;99.90;;;;;;5052789;28;20029;-48
2021/09/23 07:39:16;;;;;;;32.38;22.92;;;13.50;99.90;;;;;;5052879;28;20028;-47
2021/09/23 07:41:46;;;;;;;37.78;24.13;;;13.60;99.90;;;;;;5052483;28;20025;-50
2021/09/23 07:44:14;;;;;;;35.35;21.67;;;13.60;99.90;;;;;;5052532;28;20091;-49
2021/09/23 07:46:40;;;;;;;32.45;23.00;;;13.70;99.90;;;;;;5052597;28;20021;-52
2021/09/23 07:49:07;;;;;;;29.80;21.98;;;13.70;99.90;;;;;;5052019;28;20028;-50
2021/09/23 07:51:33;;;;;;;31.13;22.25;;;13.70;99.90;;;;;;5052448;28;20048;-49
2021/09/23 07:53:59;;;;;;;28.50;21.27;;;13.80;99.90;;;;;;5052231;28;20029;-48
2021/09/23 07:56:25;;;;;;;32.67;23.35;;;13.80;99.90;;;;;;5052191;28;20582;-52
2021/09/23 07:58:51;;;;;;;35.42;22.77;;;13.90;99.90;;;;;;5052030;28;20031;-49
2021/09/23 08:01:16;;;;;;;32.47;22.48;;;13.90;99.90;;;;;;5051812;28;20459;-50
2021/09/23 08:03:42;;;;;;;31.40;22.33;;;14.00;99.90;;;;;;5033806;28;20064;-51
2021/09/23 08:06:08;;;;;;;31.02;20.63;;;14.00;99.90;;;;;;5051592;28;20380;-52
2021/09/23 08:08:34;;;;;;;32.90;21.65;;;14.00;99.90;;;;;;5051552;28;20021;-51
2021/09/23 08:11:00;;;;;;;34.13;23.13;;;14.10;99.90;;;;;;5051431;28;20459;-49
2021/09/23 08:13:27;;;;;;;33.75;20.88;;;14.10;99.90;;;;;;5051998;28;20036;-49
2021/09/23 08:15:53;;;;;;;29.73;20.20;;;14.10;99.90;;;;;;5051767;28;20399;-53
2021/09/23 08:18:20;;;;;;;29.70;21.15;;;14.10;99.90;;;;;;5052024;28;20407;-48
2021/09/23 08:20:46;;;;;;;30.98;19.33;;;14.10;99.90;;;;;;5051603;28;20337;-49
2021/09/23 08:23:12;;;;;;;25.65;19.48;;;14.10;99.90;;;;;;5050580;28;20033;-50
2021/09/23 08:25:38;;;;;;;33.28;21.60;;;14.20;99.90;;;;;;5033713;28;20387;-49
2021/09/23 08:28:04;;;;;;;32.00;22.08;;;14.20;99.90;;;;;;5051605;28;20032;-54
2021/09/23 08:30:30;;;;;;;30.80;20.23;;;14.30;99.90;;;;;;5051308;28;20032;-51
2021/09/23 08:32:55;;;;;;;27.40;18.73;;;14.30;99.90;;;;;;5051524;28;20037;-50
2021/09/23 08:35:23;;;;;;;28.33;19.55;;;14.30;99.90;;;;;;5051455;28;20112;-52
2021/09/23 08:37:49;;;;;;;25.48;19.25;;;14.40;99.90;;;;;;5051333;28;20021;-53
2021/09/23 08:40:14;;;;;;;27.30;20.42;;;14.40;99.90;;;;;;5051204;28;20104;-50
2021/09/23 08:42:42;;;;;;;29.55;20.17;;;14.50;99.90;;;;;;5051355;28;20108;-51
2021/09/23 08:45:10;;;;;;;26.20;18.20;;;14.50;99.90;;;;;;5051332;28;20031;-51
2021/09/23 08:47:36;;;;;;;24.20;18.80;;;14.60;99.90;;;;;;5051682;28;20032;-50
2021/09/23 08:50:07;;;;;;;30.67;18.55;;;14.70;99.90;;;;;;5050471;28;20020;-53
2021/09/23 08:52:33;;;;;;;29.70;19.08;;;14.70;99.90;;;;;;5051091;28;20495;-49
2021/09/23 08:54:59;;;;;;;25.25;18.77;;;14.70;99.90;;;;;;5051278;28;20094;-51
2021/09/23 08:57:24;;;;;;;29.85;18.75;;;14.80;99.90;;;;;;5051135;28;20467;-52
2021/09/23 08:59:50;;;;;;;22.75;18.30;;;14.70;99.90;;;;;;5050863;28;20096;-51
2021/09/23 09:02:27;;;;;;;27.95;18.35;;;14.80;99.90;;;;;;5050694;28;20079;-56
2021/09/23 09:04:54;;;;;;;24.38;17.40;;;14.90;99.90;;;;;;5034043;28;20017;-50
2021/09/23 09:07:25;;;;;;;21.65;16.73;;;14.90;99.90;;;;;;5050842;28;20017;-51
2021/09/23 09:09:52;;;;;;;22.00;17.65;;;14.90;99.90;;;;;;5032377;28;20025;-49
2021/09/23 09:12:18;;;;;;;19.80;16.35;;;15.00;99.90;;;;;;5033123;28;20580;-50
2021/09/23 09:14:48;;;;;;;22.25;15.57;;;15.00;99.90;;;;;;5050210;28;20041;-52
2021/09/23 09:17:18;;;;;;;23.85;15.50;;;15.10;99.90;;;;;;5051025;28;20727;-51
2021/09/23 09:19:48;;;;;;;24.05;16.45;;;15.10;99.90;;;;;;5050632;28;20380;-49
2021/09/23 09:22:25;;;;;;;19.73;13.88;;;15.20;99.90;;;;;;5050697;28;20021;-49
2021/09/23 09:24:56;;;;;;;19.92;14.85;;;15.20;99.90;;;;;;5050262;28;20025;-53
2021/09/23 09:27:34;;;;;;;18.80;14.65;;;15.20;99.90;;;;;;5050581;28;20029;-51
2021/09/23 09:30:05;;;;;;;23.20;14.60;;;15.20;99.90;;;;;;5049972;28;20032;-49
2021/09/23 09:32:43;;;;;;;19.88;15.18;;;15.20;99.90;;;;;;5050327;28;20021;-51
2021/09/23 09:35:17;;;;;;;21.50;16.35;;;15.20;99.90;;;;;;5050085;28;20597;-52
2021/09/23 09:37:50;;;;;;;19.75;14.52;;;15.30;99.90;;;;;;5049730;28;20029;-52
2021/09/23 09:40:22;;;;;;;20.55;15.25;;;15.30;99.90;;;;;;5049271;28;20028;-53
2021/09/23 09:42:51;;;;;;;22.77;15.25;;;15.30;99.90;;;;;;5049923;28;20036;-53
2021/09/23 09:45:28;;;;;;;25.38;15.90;;;15.40;99.90;;;;;;5049972;28;20708;-52
2021/09/23 09:47:55;;;;;;;20.65;15.73;;;15.40;99.90;;;;;;5050442;28;20024;-53
2021/09/23 09:50:25;;;;;;;22.20;15.93;;;15.40;99.90;;;;;;5050074;28;20520;-49
2021/09/23 09:53:00;;;;;;;24.25;15.43;;;15.40;99.90;;;;;;5049775;28;20105;-52
2021/09/23 09:55:39;;;;;;;21.65;16.27;;;15.40;99.90;;;;;;5049473;28;20103;-55
2021/09/23 09:58:06;;;;;;;17.55;13.73;;;15.40;99.90;;;;;;5049701;28;20025;-49
2021/09/23 10:00:33;;;;;;;19.60;15.70;;;15.40;99.90;;;;;;5049382;28;20052;-54
2021/09/23 10:02:59;;;;;;;19.73;15.73;;;15.40;99.90;;;;;;5049695;28;20028;-53
2021/09/23 10:05:25;;;;;;;19.50;15.48;;;15.50;99.90;;;;;;5031443;28;20119;-50
2021/09/23 10:07:55;;;;;;;18.92;15.73;;;15.50;99.90;;;;;;5049878;28;20075;-48
2021/09/23 10:10:24;;;;;;;18.95;14.57;;;15.50;99.90;;;;;;5049263;28;20017;-49
2021/09/23 10:12:54;;;;;;;20.67;16.08;;;15.60;99.90;;;;;;5049563;28;20553;-52
2021/09/23 10:15:20;;;;;;;18.60;14.68;;;15.60;99.90;;;;;;5048971;28;20561;-53
2021/09/23 10:17:49;;;;;;;17.98;13.90;;;15.70;99.90;;;;;;5031812;28;20507;-51
2021/09/23 10:20:18;;;;;;;18.38;15.30;;;15.80;99.90;;;;;;5049355;28;20090;-53
2021/09/23 10:22:43;;;;;;;20.48;15.45;;;15.70;99.90;;;;;;5049320;28;20364;-53
2021/09/23 10:25:16;;;;;;;19.60;14.40;;;15.70;99.90;;;;;;5049046;28;20032;-49
2021/09/23 10:27:58;;;;;;;19.27;14.13;;;15.70;99.90;;;;;;5049477;28;20056;-51
2021/09/23 10:30:27;;;;;;;16.02;13.65;;;15.70;99.90;;;;;;5049246;28;20029;-56
2021/09/23 10:32:54;;;;;;;17.70;14.50;;;15.70;99.90;;;;;;5049586;28;20104;-51
2021/09/23 10:35:23;;;;;;;20.23;14.88;;;15.70;99.90;;;;;;5049405;28;20037;-50
2021/09/23 10:37:51;;;;;;;19.38;13.25;;;15.70;99.90;;;;;;5049523;28;20067;-48
2021/09/23 10:40:17;;;;;;;20.27;14.52;;;15.70;99.90;;;;;;5048909;28;20028;-50
2021/09/23 10:42:45;;;;;;;17.67;13.15;;;15.70;99.90;;;;;;5049256;28;20025;-54
2021/09/23 10:45:15;;;;;;;19.70;12.80;;;15.70;99.90;;;;;;5049068;28;20025;-53
2021/09/23 10:47:46;;;;;;;17.30;13.10;;;15.70;99.90;;;;;;5052090;28;20021;-51
2021/09/23 10:50:12;;;;;;;17.40;12.55;;;15.70;99.90;;;;;;5053364;28;20017;-53
2021/09/23 10:52:39;;;;;;;16.17;11.75;;;15.70;99.90;;;;;;5053267;28;20039;-49
2021/09/23 10:55:06;;;;;;;15.75;11.30;;;15.80;99.90;;;;;;5052970;28;20080;-50
2021/09/23 10:57:32;;;;;;;15.27;11.63;;;15.70;99.90;;;;;;5052748;28;20032;-49
2021/09/23 11:00:07;;;;;;;18.63;12.05;;;15.70;99.90;;;;;;5052576;28;20029;-51
2021/09/23 11:02:33;;;;;;;14.60;11.65;;;15.70;99.90;;;;;;5053004;28;20033;-50
2021/09/23 11:05:00;;;;;;;16.10;11.02;;;15.60;99.90;;;;;;5052752;28;20547;-52
2021/09/23 11:07:29;;;;;;;13.52;11.00;;;15.70;99.90;;;;;;5052925;28;20107;-49
2021/09/23 11:10:13;;;;;;;14.40;11.15;;;15.70;99.90;;;;;;5052396;28;20029;-54
2021/09/23 11:12:41;;;;;;;14.40;10.80;;;15.70;99.90;;;;;;5052918;28;20053;-50
2021/09/23 11:15:10;;;;;;;13.50;9.52;;;15.70;99.90;;;;;;5051815;28;20059;-50
2021/09/23 11:17:37;;;;;;;14.85;10.77;;;15.70;99.90;;;;;;5052573;28;20659;-55
2021/09/23 11:20:08;;;;;;;14.40;8.95;;;15.70;99.90;;;;;;5052386;28;20118;-49
2021/09/23 11:22:39;;;;;;;16.23;9.77;;;15.70;99.90;;;;;;5052593;28;20102;-48
2021/09/23 11:25:09;;;;;;;13.38;10.52;;;15.70;99.90;;;;;;5034439;28;20017;-49
2021/09/23 11:27:36;;;;;;;17.85;11.70;;;15.80;99.90;;;;;;5052524;28;20025;-54
2021/09/23 11:30:03;;;;;;;45.63;30.92;;;15.70;99.90;;;;;;5052423;28;20387;-51
2021/09/23 11:32:28;;;;;;;16.42;11.38;;;15.70;99.90;;;;;;5052380;28;20029;-50
2021/09/23 11:35:00;;;;;;;12.18;9.32;;;15.70;99.90;;;;;;5051997;28;20036;-49
2021/09/23 11:37:33;;;;;;;19.48;13.00;;;15.70;99.90;;;;;;5052380;28;20039;-51
2021/09/23 11:40:02;;;;;;;14.55;10.43;;;15.70;99.90;;;;;;5051936;28;20029;-51
2021/09/23 11:42:32;;;;;;;11.20;9.65;;;15.80;99.90;;;;;;5052028;28;20501;-53
2021/09/23 11:45:17;;;;;;;13.32;9.65;;;15.80;99.90;;;;;;5052004;28;20016;-54
2021/09/23 11:47:54;;;;;;;11.07;8.43;;;15.80;99.90;;;;;;5052224;28;20025;-55
2021/09/23 11:50:33;;;;;;;16.55;9.13;;;15.80;99.90;;;;;;5033612;28;20021;-51
2021/09/23 11:53:24;;;;;;;12.65;9.70;;;15.80;99.90;;;;;;5052216;28;20111;-52
2021/09/23 11:55:58;;;;;;;13.73;10.48;;;15.80;99.90;;;;;;5052113;28;20035;-49
2021/09/23 11:58:25;;;;;;;10.45;8.07;;;15.80;99.90;;;;;;5051938;28;20025;-48
2021/09/23 12:00:51;;;;;;;11.68;8.25;;;15.90;99.90;;;;;;5051580;28;20395;-51
2021/09/23 12:03:20;;;;;;;13.38;8.65;;;15.90;99.90;;;;;;5051783;28;20035;-52
2021/09/23 12:05:47;;;;;;;10.75;8.85;;;15.90;99.90;;;;;;5051678;28;20047;-51
2021/09/23 12:08:21;;;;;;;12.65;7.95;;;15.90;99.90;;;;;;5051428;28;20441;-49
2021/09/23 12:11:01;;;;;;;14.23;8.52;;;15.90;99.90;;;;;;5051542;28;20016;-49
2021/09/23 12:13:36;;;;;;;13.50;9.35;;;15.90;99.90;;;;;;5051754;28;20037;-52
2021/09/23 12:16:24;;;;;;;13.15;7.80;;;15.80;99.90;;;;;;5051669;28;20035;-50
2021/09/23 12:18:50;;;;;;;10.65;7.65;;;15.80;99.90;;;;;;5051778;28;20021;-50
2021/09/23 12:21:19;;;;;;;9.95;6.90;;;15.90;99.90;;;;;;5051118;28;20033;-55
2021/09/23 12:23:50;;;;;;;7.13;6.22;;;15.90;99.90;;;;;;5051611;28;20025;-47
2021/09/23 12:26:44;;;;;;;16.33;7.75;;;15.90;99.90;;;;;;5051394;28;20021;-49
2021/09/23 12:29:19;;;;;;;11.32;7.38;;;15.90;99.90;;;;;;5034199;28;20040;-56
2021/09/23 12:31:47;;;;;;;10.20;6.70;;;15.90;99.90;;;;;;5051206;28;20491;-51